ДАННЫЕ О ПОГОДЕ

ВЧЕРА
Time Темп. Т росы. Влаж. Давл.
00:15 16.9 9.3 61 1006
00:25 16.9 9.3 61 1006
00:35 16.7 9.2 61 1005.9
00:45 16.6 9.1 61 1005.8
00:55 16.4 8.9 61 1005.7
01:05 16.3 8.8 61 1005.7
01:15 16.2 8.9 62 1005.7
01:25 16.1 8.8 62 1006
01:36 15.9 8.6 62 1006.1
01:45 15.9 8.9 63 1006.3
01:55 15.8 9 64 1006.5
02:05 15.6 9.1 65 1006.4
02:16 15.5 9.2 66 1006.3
02:26 15.5 9.4 67 1006.3
02:35 15.4 9.5 68 1006.2
02:46 15.4 9.7 69 1006.1
02:56 15.3 9.9 70 1006
03:06 15.2 9.8 70 1006.1
03:16 15.2 10 71 1006.1
03:26 15.1 10.1 72 1005.9
03:36 15.1 10.3 73 1006
03:46 15 10.2 73 1006
03:57 15 10.4 74 1006
04:06 14.9 10.5 75 1005.8
04:16 14.9 10.5 75 1005.8
04:26 14.8 10.6 76 1005.8
04:37 14.8 10.8 77 1005.8
04:47 14.7 10.7 77 1005.7
04:56 14.7 10.9 78 1005.7
05:07 14.6 10.8 78 1005.5
05:17 14.6 11 79 1005.4
05:27 14.5 11.1 80 1005.5
05:37 14.5 11.1 80 1005.6
05:47 14.5 11.3 81 1005.6
05:57 14.5 11.3 81 1005.4
06:07 14.4 11.2 81 1005.6
06:18 14.4 11.4 82 1005.5
06:27 14.3 11.3 82 1005.6
06:37 14.4 11.6 83 1005.7
06:47 14.3 11.5 83 1005.5
06:58 14.3 11.5 83 1005.3
07:07 14.3 11.5 83 1005.2
07:17 14.3 11.6 84 1004.9
07:28 14.3 11.6 84 1004.9
07:38 14.4 11.7 84 1004.7
07:47 14.5 11.8 84 1004.9
07:58 14.7 12.2 85 1005.2
08:08 14.8 12.3 85 1005.4
08:18 14.9 12.4 85 1005.6
08:27 14.9 12.4 85 1005.5
08:38 14.9 12.4 85 1005.3
08:48 15 12.5 85 1005.1
08:58 15.3 12.8 85 1005.1
09:08 15.4 12.9 85 1005.1
09:18 15.5 13 85 1005
09:28 15.6 13.1 85 1004.9
09:38 15.7 13.2 85 1004.8
09:49 15.9 13.4 85 1004.7
09:59 16.1 13.6 85 1004.8
10:08 16.2 13.7 85 1004.7
10:19 16.2 13.7 85 1004.9
10:29 16.2 13.5 84 1004.8
10:39 16.3 13.6 84 1004.8
10:49 16.3 13.6 84 1004.6
10:59 16.5 13.8 84 1004.5
11:09 16.8 14.1 84 1004.2
11:19 17 14.3 84 1004.3
11:29 17.2 14.5 84 1004.6
11:39 17.2 14.3 83 1004.4
11:49 17.2 14.3 83 1004.6
11:58 17.3 14.4 83 1004.4
12:10 17.2 14.3 83 1004.3
12:20 17.1 14.2 83 1004.3
12:29 17 13.9 82 1004.3
12:40 17.2 14.1 82 1004.3
12:50 17.3 14.2 82 1004.2
13:00 17.4 14.3 82 1004.6
13:09 17.5 14.4 82 1004.6
13:20 17.5 14.4 82 1004.3
13:30 17.5 14.2 81 1004.4
13:40 17.5 14.2 81 1004.7
13:50 17.5 14.2 81 1004.7
14:00 17.5 14.2 81 1004.8
14:09 17.4 14.1 81 1004.5
14:20 17.5 14.2 81 1004.4
14:31 17.7 14.4 81 1004.6
14:40 17.8 14.5 81 1004.7
14:50 18 14.7 81 1004.5
15:01 18.3 15 81 1004.8
15:11 18.5 15 80 1004.7
15:21 18.6 15.1 80 1004.7
15:30 18.3 14.8 80 1004.8
15:41 18 14.5 80 1004.7
15:51 18 14.5 80 1004.7
16:01 18 14.5 80 1004.6
16:09 17.9 14.4 80 1004.3
16:21 17.8 14.1 79 1004
16:31 17.9 14.2 79 1004.2
16:41 17.9 14.2 79 1004.4
16:52 18 14.3 79 1004.4
17:00 18.1 14.4 79 1004.4
17:11 18.2 14.5 79 1004.5
17:21 18.2 14.5 79 1004.7
17:32 18.2 14.3 78 1004.8
17:41 18 14.1 78 1004.8
17:51 17.7 13.8 78 1004.9
18:02 17.5 13.6 78 1004.8
18:12 17.3 13.4 78 1004.9
18:22 17.1 13.2 78 1005
18:32 17 13.1 78 1005.1
18:42 16.8 12.9 78 1005.1
18:52 16.6 12.8 78 1005.1
19:02 16.4 12.6 78 1005.2
19:12 16.3 12.5 78 1005.1
19:22 16.2 12.4 78 1005.1
19:32 16.2 12.6 79 1005.1
19:42 16.1 12.5 79 1005.2
19:53 16 12.4 79 1005.4
20:02 16 12.4 79 1005.5
20:12 15.9 12.3 79 1005.6
20:23 15.9 12.5 80 1005.6
20:33 15.8 12.4 80 1005.7
20:42 15.7 12.3 80 1005.8
20:53 15.6 12.4 81 1005.9
21:02 15.6 12.4 81 1006
21:12 15.5 12.3 81 1006.1
21:23 15.4 12.2 81 1006.2
21:33 15.4 12.3 82 1006.4
21:43 15.3 12.2 82 1006.5
21:53 15.2 12.2 82 1006.5
22:03 15.1 12.1 82 1006.7
22:14 15 12.1 83 1006.8
22:23 15 12.1 83 1006.8
22:33 14.8 11.9 83 1007
22:44 14.8 11.9 83 1007.1
22:54 14.7 11.8 83 1007.3
23:03 14.6 11.7 83 1007.3
23:14 14.4 11.6 83 1007.1
23:24 14.3 11.5 83 1007.2
23:34 14.2 11.4 83 1007.3
23:44 14.1 11.3 83 1007.2
23:54 14 11.2 83 1007.1

СТАТИСТИКА ЗА ДЕНЬ

2021-05-11
TЕМПЕРАТУРА
СРЕДНЯЯ
16.1
МАКСИМАЛЬНАЯ
18.6
15:21
МИНИМАЛЬНАЯ
14.0
23:54
ДАВЛЕНИЕ
СРЕДНЯЯ
1005.4
МАКСИМАЛЬНАЯ
1007.3
22:54
МИНИМАЛЬНАЯ
1004.0
16:21
ТОЧКА РОСЫ
СРЕДНЯЯ
12.3
МАКСИМАЛЬНАЯ
15.1
15:21
МИНИМАЛЬНАЯ
8.6
01:36
ВЛАЖНОСТЬ
СРЕДНЯЯ
79
МАКСИМАЛЬНАЯ
85
07:58
МИНИМАЛЬНАЯ
61
00:15
TЕМПЕРАТУРА (°C)
МИНИМАЛЬНАЯ
14.0
МАКСИМАЛЬНАЯ
18.6
СРЕДНЯЯ
16.1
ДАВЛЕНИЕ (hpa)
МИНИМАЛЬНАЯ
1004.0
МАКСИМАЛЬНАЯ
1007.3
СРЕДНЯЯ
1005.4
УСТРОЙСТВО